createdAt,value
2023-04-07T00:02:04.668Z,114.10
2023-04-07T00:04:32.729Z,130.40
2023-04-07T00:07:01.117Z,164.67
2023-04-07T00:09:29.052Z,120.03
2023-04-07T00:11:58.422Z,81.67
2023-04-07T00:14:26.378Z,421.60
2023-04-07T00:16:54.322Z,125.23
2023-04-07T00:19:22.265Z,31.93
2023-04-07T00:21:50.264Z,52.90
2023-04-07T00:24:31.018Z,120.20
2023-04-07T00:27:03.128Z,74.20
2023-04-07T00:29:31.060Z,42.80
2023-04-07T00:31:59.087Z,105.47
2023-04-07T00:34:27.030Z,31.63
2023-04-07T00:36:54.983Z,68.40
2023-04-07T00:39:23.123Z,75.23
2023-04-07T00:41:51.371Z,63.00
2023-04-07T00:44:20.827Z,206.17
2023-04-07T00:46:49.408Z,129.80
2023-04-07T00:49:18.747Z,75.10
2023-04-07T00:51:47.598Z,86.23
2023-04-07T00:54:16.466Z,43.80
2023-04-07T00:56:44.523Z,162.67
2023-04-07T00:59:12.560Z,36.47
2023-04-07T01:01:49.566Z,102.57
2023-04-07T01:04:27.500Z,71.90
2023-04-07T01:07:02.721Z,92.83
2023-04-07T01:09:38.805Z,87.23
2023-04-07T01:12:13.625Z,159.43
2023-04-07T01:14:46.908Z,53.50
2023-04-07T01:17:17.348Z,156.40
2023-04-07T01:19:54.117Z,115.43
2023-04-07T01:22:25.295Z,171.77
2023-04-07T01:25:11.336Z,30.70
2023-04-07T01:27:50.314Z,81.33
2023-04-07T01:30:20.384Z,369.10
2023-04-07T01:32:52.878Z,55.10
2023-04-07T01:35:21.452Z,101.97
2023-04-07T01:37:50.796Z,98.53
2023-04-07T01:40:19.255Z,110.77
2023-04-07T01:42:48.148Z,66.13
2023-04-07T01:45:19.266Z,324.27
2023-04-07T01:47:47.940Z,64.00
2023-04-07T01:50:17.067Z,54.70
2023-04-07T01:52:45.917Z,43.60
2023-04-07T01:55:15.630Z,171.17
2023-04-07T01:57:43.617Z,184.50
2023-04-07T02:00:12.619Z,45.67
2023-04-07T02:02:46.667Z,56.37
2023-04-07T02:05:18.987Z,65.40
2023-04-07T02:07:52.871Z,317.90
2023-04-07T02:10:24.541Z,37.63
2023-04-07T02:12:53.723Z,35.67
2023-04-07T02:15:23.021Z,49.63
2023-04-07T02:17:56.149Z,29.63
2023-04-07T02:20:25.418Z,152.43
2023-04-07T02:22:53.823Z,87.13
2023-04-07T02:25:26.517Z,60.60
2023-04-07T02:27:55.669Z,50.07
2023-04-07T02:30:23.823Z,123.33
2023-04-07T02:32:53.498Z,35.93
2023-04-07T02:35:21.788Z,39.10
2023-04-07T02:37:50.575Z,59.87
2023-04-07T02:40:18.815Z,51.53
2023-04-07T02:42:47.595Z,37.67
2023-04-07T02:45:16.021Z,43.17
2023-04-07T02:47:44.147Z,45.70
2023-04-07T02:50:13.691Z,49.97
2023-04-07T02:52:41.646Z,43.87
2023-04-07T02:55:10.544Z,58.97
2023-04-07T02:57:38.542Z,41.73
2023-04-07T03:00:07.665Z,64.77
2023-04-07T03:02:35.820Z,84.83
2023-04-07T03:05:04.436Z,45.30
2023-04-07T03:07:33.917Z,24.67
2023-04-07T03:10:01.988Z,30.13
2023-04-07T03:12:30.002Z,43.03
2023-04-07T03:14:57.944Z,74.23
2023-04-07T03:17:26.331Z,36.87
2023-04-07T03:19:54.308Z,37.07
2023-04-07T03:22:22.297Z,27.67
2023-04-07T03:24:51.654Z,35.77
2023-04-07T03:27:20.362Z,63.53
2023-04-07T03:29:48.503Z,38.47
2023-04-07T03:32:16.657Z,33.83
2023-04-07T03:34:44.583Z,111.37
2023-04-07T03:37:12.580Z,194.67
2023-04-07T03:39:41.130Z,40.73
2023-04-07T03:42:10.506Z,29.90
2023-04-07T03:44:38.436Z,127.70
2023-04-07T03:47:06.486Z,99.97
2023-04-07T03:49:34.442Z,35.63
2023-04-07T03:52:02.878Z,30.87
2023-04-07T03:54:30.802Z,22.03
2023-04-07T03:56:58.860Z,230.13
2023-04-07T03:59:28.227Z,23.57
2023-04-07T04:01:56.389Z,344.93
2023-04-07T04:04:25.420Z,63.77
2023-04-07T04:06:53.427Z,355.07
2023-04-07T04:09:21.873Z,143.90
2023-04-07T04:11:49.836Z,34.90
2023-04-07T04:14:17.831Z,54.53
2023-04-07T04:16:47.128Z,71.17
2023-04-07T04:19:15.131Z,193.90
2023-04-07T04:21:43.097Z,66.20
2023-04-07T04:24:11.208Z,55.10
2023-04-07T04:26:39.165Z,74.13
2023-04-07T04:29:07.300Z,29.60
2023-04-07T04:31:35.518Z,52.17
2023-04-07T04:34:04.980Z,179.07
2023-04-07T04:36:32.930Z,64.90
2023-04-07T04:39:00.886Z,55.50
2023-04-07T04:41:28.849Z,226.20
2023-04-07T04:43:56.805Z,80.03
2023-04-07T04:46:24.763Z,44.37
2023-04-07T04:48:54.113Z,22.80
2023-04-07T04:51:23.468Z,21.90
2023-04-07T04:53:51.770Z,26.50
2023-04-07T04:56:19.965Z,68.43
2023-04-07T04:58:47.994Z,31.00
2023-04-07T05:01:16.049Z,29.43
2023-04-07T05:03:44.207Z,18.67
2023-04-07T05:06:12.240Z,92.10
2023-04-07T05:08:41.666Z,26.00
2023-04-07T05:11:09.712Z,15.23
2023-04-07T05:13:37.653Z,16.20
2023-04-07T05:16:06.482Z,37.67
2023-04-07T05:18:34.526Z,25.53
2023-04-07T05:21:02.948Z,54.20
2023-04-07T05:23:30.905Z,39.83
2023-04-07T05:26:00.344Z,29.57
2023-04-07T05:28:28.445Z,37.90
2023-04-07T05:30:56.390Z,221.07
2023-04-07T05:33:24.327Z,19.23
2023-04-07T05:35:52.307Z,19.77
2023-04-07T05:38:20.568Z,57.67
2023-04-07T05:40:48.552Z,29.37
2023-04-07T05:43:17.863Z,49.90
2023-04-07T05:45:45.904Z,22.80
2023-04-07T05:48:13.875Z,15.20
2023-04-07T05:50:41.855Z,39.80
2023-04-07T05:53:09.793Z,32.93
2023-04-07T05:55:37.731Z,26.40
2023-04-07T05:58:05.705Z,22.20
2023-04-07T06:00:35.065Z,18.13
2023-04-07T06:03:03.943Z,21.50
2023-04-07T06:05:32.213Z,58.27
2023-04-07T06:08:00.300Z,40.97
2023-04-07T06:10:28.276Z,62.60
2023-04-07T06:12:56.208Z,48.37
2023-04-07T06:15:24.180Z,62.20
2023-04-07T06:17:53.599Z,84.53
2023-04-07T06:20:23.045Z,28.73
2023-04-07T06:22:51.163Z,61.07
2023-04-07T06:25:19.189Z,34.23
2023-04-07T06:27:47.182Z,25.30
2023-04-07T06:30:15.810Z,23.53
2023-04-07T06:32:43.994Z,23.57
2023-04-07T06:35:13.362Z,28.63
2023-04-07T06:37:41.738Z,55.03
2023-04-07T06:40:10.553Z,34.70
2023-04-07T06:42:38.521Z,67.07
2023-04-07T06:45:07.311Z,56.53
2023-04-07T06:47:35.304Z,39.33
2023-04-07T06:50:03.476Z,52.57
2023-04-07T06:52:33.124Z,142.27
2023-04-07T06:55:01.536Z,197.60
2023-04-07T06:57:29.495Z,61.53
2023-04-07T06:59:57.438Z,46.93
2023-04-07T07:02:25.799Z,28.53
2023-04-07T07:04:53.820Z,41.60
2023-04-07T07:07:21.857Z,28.90
2023-04-07T07:09:51.272Z,269.10
2023-04-07T07:12:19.259Z,66.17
2023-04-07T07:14:47.307Z,62.47
2023-04-07T07:17:15.431Z,138.13
2023-04-07T07:19:43.500Z,43.17
2023-04-07T07:22:11.557Z,352.13
2023-04-07T07:24:39.520Z,35.47
2023-04-07T07:27:08.848Z,74.40
2023-04-07T07:29:36.793Z,28.33
2023-04-07T07:32:04.752Z,53.20
2023-04-07T07:34:33.602Z,37.43
2023-04-07T07:37:01.569Z,41.90
2023-04-07T07:39:30.206Z,113.70
2023-04-07T07:41:58.174Z,206.47
2023-04-07T07:44:27.505Z,77.00
2023-04-07T07:46:55.559Z,76.27
2023-04-07T07:49:23.521Z,117.60
2023-04-07T07:51:51.750Z,60.47
2023-04-07T07:54:19.857Z,54.77
2023-04-07T07:56:47.844Z,51.43
2023-04-07T07:59:17.353Z,157.43
2023-04-07T08:01:47.416Z,57.47
2023-04-07T08:04:15.655Z,257.80
2023-04-07T08:06:43.789Z,339.67
2023-04-07T08:09:11.727Z,492.87
2023-04-07T08:11:39.758Z,55.83
2023-04-07T08:14:09.819Z,61.93
2023-04-07T08:16:39.230Z,155.87
2023-04-07T08:19:08.600Z,91.50
2023-04-07T08:21:36.664Z,48.00
2023-04-07T08:24:04.752Z,145.73
2023-04-07T08:26:33.009Z,43.53
2023-04-07T08:29:01.133Z,187.57
2023-04-07T08:31:29.214Z,35.77
2023-04-07T08:33:59.017Z,169.67
2023-04-07T08:36:28.926Z,46.47
2023-04-07T08:38:57.016Z,139.90
2023-04-07T08:41:30.092Z,25.63
2023-04-07T08:43:59.007Z,185.60
2023-04-07T08:46:27.846Z,315.97
2023-04-07T08:48:58.188Z,221.50
2023-04-07T08:51:31.790Z,94.10
2023-04-07T08:54:07.356Z,794.73
2023-04-07T08:56:35.796Z,329.97
2023-04-07T08:59:03.994Z,157.37
2023-04-07T09:01:32.175Z,55.13
2023-04-07T09:04:01.041Z,396.67
2023-04-07T09:06:31.992Z,183.50
2023-04-07T09:08:59.991Z,552.30
2023-04-07T09:11:28.618Z,564.27
2023-04-07T09:13:57.071Z,525.90
2023-04-07T09:16:25.043Z,188.00
2023-04-07T09:18:54.544Z,58.90
2023-04-07T09:21:22.481Z,113.93
2023-04-07T09:23:51.989Z,181.87
2023-04-07T09:26:22.110Z,177.70
2023-04-07T09:28:55.107Z,142.67
2023-04-07T09:31:26.160Z,545.70
2023-04-07T09:33:54.462Z,74.17
2023-04-07T09:36:22.789Z,41.97
2023-04-07T09:38:53.644Z,342.03
2023-04-07T09:41:21.641Z,442.60
2023-04-07T09:43:50.125Z,77.93
2023-04-07T09:46:20.010Z,233.90
2023-04-07T09:48:48.612Z,108.17
2023-04-07T09:51:18.331Z,27.30
2023-04-07T09:53:49.042Z,403.83
2023-04-07T09:56:22.281Z,340.10
2023-04-07T09:58:52.028Z,383.33
2023-04-07T10:01:21.972Z,896.43
2023-04-07T10:03:51.635Z,41.40
2023-04-07T10:06:20.935Z,244.00
2023-04-07T10:08:49.701Z,207.00
2023-04-07T10:11:19.661Z,118.43
2023-04-07T10:13:47.960Z,35.00
2023-04-07T10:16:16.372Z,116.77
2023-04-07T10:18:45.149Z,551.27
2023-04-07T10:21:15.328Z,77.93
2023-04-07T10:23:51.586Z,367.97
2023-04-07T10:26:26.410Z,479.63
2023-04-07T10:29:00.106Z,71.27
2023-04-07T10:31:28.595Z,104.90
2023-04-07T10:33:57.582Z,540.60
2023-04-07T10:36:26.146Z,181.70
2023-04-07T10:39:22.193Z,523.27
2023-04-07T10:41:51.895Z,318.33
2023-04-07T10:44:52.394Z,89.27
2023-04-07T10:47:20.429Z,41.70
2023-04-07T10:50:18.246Z,274.63
2023-04-07T10:52:47.235Z,583.87
2023-04-07T10:55:32.765Z,205.63
2023-04-07T10:58:26.216Z,95.63
2023-04-07T11:01:20.742Z,516.13
2023-04-07T11:04:00.068Z,328.20
2023-04-07T11:06:28.590Z,766.87
2023-04-07T11:08:56.681Z,142.67
2023-04-07T11:11:39.533Z,566.93
2023-04-07T11:14:08.941Z,323.40
2023-04-07T11:16:46.455Z,397.10
2023-04-07T11:19:14.387Z,333.33
2023-04-07T11:21:42.362Z,159.07
2023-04-07T11:24:10.511Z,200.37
2023-04-07T11:26:40.163Z,933.33
2023-04-07T11:29:10.466Z,223.50
2023-04-07T11:31:40.008Z,607.33
2023-04-07T11:34:08.970Z,378.90
2023-04-07T11:36:42.260Z,353.73
2023-04-07T11:39:21.046Z,471.67
2023-04-07T11:41:50.672Z,512.60
2023-04-07T11:44:20.039Z,414.43
2023-04-07T11:46:55.484Z,108.13
2023-04-07T11:49:24.997Z,65.10
2023-04-07T11:52:00.914Z,80.67
2023-04-07T11:54:29.005Z,257.73
2023-04-07T11:56:57.027Z,549.73
2023-04-07T11:59:27.152Z,690.67
2023-04-07T12:01:57.680Z,168.80
2023-04-07T12:04:26.237Z,268.73
2023-04-07T12:06:54.603Z,405.53
2023-04-07T12:09:30.498Z,670.47
2023-04-07T12:11:59.389Z,438.37
2023-04-07T12:14:28.836Z,382.53
2023-04-07T12:16:58.222Z,179.03
2023-04-07T12:19:28.355Z,220.07
2023-04-07T12:21:56.544Z,308.13
2023-04-07T12:24:24.863Z,456.30
2023-04-07T12:26:53.069Z,278.30
2023-04-07T12:29:21.041Z,378.93
2023-04-07T12:31:51.325Z,690.00
2023-04-07T12:34:19.655Z,655.07
2023-04-07T12:36:47.729Z,578.97
2023-04-07T12:39:16.693Z,256.23
2023-04-07T12:41:45.724Z,432.67
2023-04-07T12:44:13.811Z,311.57
2023-04-07T12:46:43.168Z,319.77
2023-04-07T12:49:12.543Z,405.70
2023-04-07T12:51:40.637Z,467.67
2023-04-07T12:54:08.715Z,514.20
2023-04-07T12:56:36.710Z,504.63
2023-04-07T12:59:05.014Z,408.67
2023-04-07T13:01:35.334Z,487.77
2023-04-07T13:04:03.563Z,501.03
2023-04-07T13:06:33.608Z,495.07
2023-04-07T13:09:01.538Z,551.13
2023-04-07T13:11:29.509Z,440.13
2023-04-07T13:13:59.270Z,530.73
2023-04-07T13:16:28.753Z,213.40
2023-04-07T13:18:57.258Z,366.37
2023-04-07T13:23:57.603Z,364.80
2023-04-07T13:26:26.198Z,384.57
2023-04-07T13:28:54.140Z,357.97
2023-04-07T13:31:23.722Z,196.63
2023-04-07T13:33:51.812Z,172.80
2023-04-07T13:36:21.875Z,243.73
2023-04-07T13:38:51.366Z,327.53
2023-04-07T13:41:21.521Z,248.83
2023-04-07T13:43:49.641Z,397.47
2023-04-07T13:46:27.917Z,631.17
2023-04-07T13:48:56.486Z,248.30
2023-04-07T13:51:24.587Z,148.83
2023-04-07T13:53:52.618Z,261.17
2023-04-07T13:56:22.268Z,541.83
2023-04-07T13:58:50.458Z,645.23
2023-04-07T14:01:18.781Z,386.00
2023-04-07T14:03:47.861Z,497.67
2023-04-07T14:06:16.361Z,658.27
2023-04-07T14:08:44.317Z,688.20
2023-04-07T14:11:12.269Z,543.83
2023-04-07T14:13:41.579Z,373.33
2023-04-07T14:16:09.583Z,756.90
2023-04-07T14:18:38.117Z,668.37
2023-04-07T14:21:06.322Z,523.73
2023-04-07T14:23:51.341Z,449.97
2023-04-07T14:26:19.329Z,944.23
2023-04-07T14:28:48.750Z,622.07
2023-04-07T14:31:17.699Z,353.37
2023-04-07T14:33:46.749Z,556.47
2023-04-07T14:36:15.925Z,509.73
2023-04-07T14:38:44.806Z,609.97
2023-04-07T14:41:13.134Z,409.37
2023-04-07T14:43:41.469Z,671.57
2023-04-07T14:46:12.354Z,741.07
2023-04-07T14:48:40.390Z,613.73
2023-04-07T14:51:12.995Z,722.13
2023-04-07T14:53:43.454Z,744.70
2023-04-07T14:56:11.437Z,688.73
2023-04-07T14:58:40.602Z,390.27
2023-04-07T15:01:09.928Z,490.30
2023-04-07T15:03:38.042Z,600.10
2023-04-07T15:06:08.689Z,627.20
2023-04-07T15:08:36.811Z,427.33
2023-04-07T15:11:06.432Z,542.07
2023-04-07T15:13:34.436Z,700.17
2023-04-07T15:16:08.593Z,226.27
2023-04-07T15:18:39.410Z,373.23
2023-04-07T15:21:07.707Z,564.97
2023-04-07T15:23:37.717Z,628.23
2023-04-07T15:26:06.136Z,721.97
2023-04-07T15:28:34.122Z,832.37
2023-04-07T15:31:02.273Z,318.37
2023-04-07T15:33:30.447Z,540.13
2023-04-07T15:36:01.366Z,667.97
2023-04-07T15:38:29.506Z,475.17
2023-04-07T15:40:57.532Z,586.60
2023-04-07T15:43:25.843Z,706.03
2023-04-07T15:45:56.306Z,618.47
2023-04-07T15:48:24.478Z,595.87
2023-04-07T15:50:53.811Z,393.43
2023-04-07T15:53:23.245Z,390.83
2023-04-07T15:55:51.187Z,228.80
2023-04-07T15:58:19.135Z,306.63
2023-04-07T16:00:47.153Z,346.97
2023-04-07T16:03:15.621Z,364.30
2023-04-07T16:05:43.746Z,414.43
2023-04-07T16:08:13.607Z,449.20
2023-04-07T16:10:43.211Z,545.60
2023-04-07T16:13:11.528Z,412.83
2023-04-07T16:15:41.269Z,365.27
2023-04-07T16:18:11.477Z,473.93
2023-04-07T16:20:39.567Z,503.90
2023-04-07T16:23:07.516Z,447.10
2023-04-07T16:25:36.135Z,408.67
2023-04-07T16:28:05.631Z,564.47
2023-04-07T16:30:33.695Z,242.20
2023-04-07T16:33:01.823Z,321.77
2023-04-07T16:35:30.911Z,366.40
2023-04-07T16:38:03.662Z,400.73
2023-04-07T16:40:31.823Z,392.70
2023-04-07T16:42:59.848Z,329.63
2023-04-07T16:45:29.222Z,392.53
2023-04-07T16:47:57.225Z,515.70
2023-04-07T16:50:25.223Z,439.07
2023-04-07T16:52:54.751Z,386.90
2023-04-07T16:55:22.934Z,398.10
2023-04-07T16:57:51.129Z,398.23
2023-04-07T17:00:20.181Z,192.43
2023-04-07T17:02:50.108Z,335.80
2023-04-07T17:05:18.499Z,285.93
2023-04-07T17:07:46.431Z,486.13
2023-04-07T17:10:15.082Z,280.77
2023-04-07T17:12:43.154Z,207.17
2023-04-07T17:15:11.850Z,400.13
2023-04-07T17:17:39.958Z,332.43
2023-04-07T17:20:10.883Z,385.33
2023-04-07T17:22:38.976Z,349.77
2023-04-07T17:25:07.746Z,115.53
2023-04-07T17:27:35.970Z,173.20
2023-04-07T17:30:05.285Z,240.63
2023-04-07T17:32:33.387Z,248.73
2023-04-07T17:35:01.484Z,331.73
2023-04-07T17:37:30.838Z,195.17
2023-04-07T17:40:00.246Z,233.97
2023-04-07T17:42:28.235Z,133.97
2023-04-07T17:44:56.837Z,156.43
2023-04-07T17:47:25.146Z,318.87
2023-04-07T17:49:53.181Z,274.83
2023-04-07T17:52:21.513Z,150.57
2023-04-07T17:54:50.936Z,155.17
2023-04-07T17:57:20.162Z,257.50
2023-04-07T17:59:48.780Z,185.50
2023-04-07T18:02:17.178Z,204.43
2023-04-07T18:04:45.594Z,159.13
2023-04-07T18:07:13.819Z,167.73
2023-04-07T18:09:42.977Z,109.97
2023-04-07T18:12:12.394Z,89.93
2023-04-07T18:14:40.340Z,250.13
2023-04-07T18:17:08.258Z,213.00
2023-04-07T18:19:36.544Z,161.73
2023-04-07T18:22:04.656Z,96.17
2023-04-07T18:24:32.671Z,77.50
2023-04-07T18:27:02.531Z,106.20
2023-04-07T18:29:31.883Z,120.77
2023-04-07T18:31:59.830Z,95.30
2023-04-07T18:34:27.930Z,92.10
2023-04-07T18:36:55.920Z,95.23
2023-04-07T18:39:27.851Z,75.13
2023-04-07T18:41:57.428Z,60.77
2023-04-07T18:44:25.698Z,130.77
2023-04-07T18:46:55.103Z,183.43
2023-04-07T18:49:23.126Z,27.23
2023-04-07T18:51:52.182Z,124.20
2023-04-07T18:54:21.207Z,153.67
2023-04-07T18:56:49.256Z,73.97
2023-04-07T18:59:17.202Z,91.53
2023-04-07T19:01:45.514Z,86.23
2023-04-07T19:04:15.429Z,37.53
2023-04-07T19:06:43.393Z,65.53
2023-04-07T19:09:11.400Z,136.80
2023-04-07T19:11:41.566Z,87.03
2023-04-07T19:14:09.533Z,102.57
2023-04-07T19:16:37.640Z,32.93
2023-04-07T19:19:06.172Z,41.43
2023-04-07T19:21:35.557Z,166.80
2023-04-07T19:24:03.504Z,21.40
2023-04-07T19:26:31.690Z,44.07
2023-04-07T19:28:59.947Z,38.73
2023-04-07T19:31:28.045Z,53.03
2023-04-07T19:33:56.248Z,39.33
2023-04-07T19:36:24.297Z,83.03
2023-04-07T19:38:53.685Z,57.07
2023-04-07T19:41:21.634Z,110.33
2023-04-07T19:43:49.934Z,30.43
2023-04-07T19:46:18.057Z,56.77
2023-04-07T19:48:46.250Z,78.87
2023-04-07T19:51:14.236Z,44.00
2023-04-07T19:53:42.163Z,100.77
2023-04-07T19:56:13.847Z,41.33
2023-04-07T19:58:41.796Z,58.03
2023-04-07T20:01:16.778Z,20.17
2023-04-07T20:03:45.211Z,19.87
2023-04-07T20:06:15.016Z,37.23
2023-04-07T20:08:43.215Z,32.13
2023-04-07T20:11:13.445Z,17.93
2023-04-07T20:13:42.364Z,27.23
2023-04-07T20:16:10.832Z,16.37
2023-04-07T20:18:38.857Z,32.13
2023-04-07T20:21:06.964Z,54.53
2023-04-07T20:23:35.077Z,18.70
2023-04-07T20:26:03.280Z,21.80
2023-04-07T20:28:32.877Z,16.00
2023-04-07T20:31:01.163Z,36.17
2023-04-07T20:33:29.230Z,26.57
2023-04-07T20:35:57.245Z,55.43
2023-04-07T20:38:25.974Z,15.40
2023-04-07T20:40:54.107Z,38.70
2023-04-07T20:43:23.612Z,37.10
2023-04-07T20:45:53.302Z,41.50
2023-04-07T20:48:23.871Z,19.53
2023-04-07T20:50:52.762Z,21.83
2023-04-07T20:53:20.880Z,29.33
2023-04-07T20:55:49.025Z,29.23
2023-04-07T20:58:17.690Z,71.30
2023-04-07T21:00:45.929Z,16.73
2023-04-07T21:03:15.674Z,16.50
2023-04-07T21:05:44.989Z,26.33
2023-04-07T21:08:14.628Z,16.87
2023-04-07T21:10:43.113Z,21.93
2023-04-07T21:13:11.242Z,21.93
2023-04-07T21:15:42.320Z,19.90
2023-04-07T21:18:10.305Z,18.60
2023-04-07T21:20:39.656Z,16.93
2023-04-07T21:23:08.709Z,24.57
2023-04-07T21:25:39.057Z,28.43
2023-04-07T21:28:07.367Z,27.13
2023-04-07T21:30:35.557Z,21.47
2023-04-07T21:33:04.080Z,14.40
2023-04-07T21:35:32.154Z,29.10
2023-04-07T21:38:01.469Z,20.07
2023-04-07T21:40:29.428Z,88.67
2023-04-07T21:42:57.607Z,18.67
2023-04-07T21:45:25.745Z,10.83
2023-04-07T21:47:53.760Z,36.23
2023-04-07T21:50:21.769Z,22.03
2023-04-07T21:52:50.821Z,50.67
2023-04-07T21:55:20.523Z,54.73
2023-04-07T21:57:50.259Z,47.07
2023-04-07T22:00:18.529Z,33.77
2023-04-07T22:02:46.903Z,28.50
2023-04-07T22:05:17.404Z,43.47
2023-04-07T22:07:46.825Z,48.90
2023-04-07T22:10:15.014Z,28.80
2023-04-07T22:12:44.324Z,37.40
2023-04-07T22:15:13.084Z,36.17
2023-04-07T22:17:41.397Z,62.30
2023-04-07T22:20:11.611Z,49.03
2023-04-07T22:22:40.006Z,49.03
2023-04-07T22:25:08.625Z,36.60
2023-04-07T22:27:36.642Z,25.53
2023-04-07T22:30:09.882Z,40.47
2023-04-07T22:32:38.189Z,26.67
2023-04-07T22:35:06.899Z,41.80
2023-04-07T22:37:34.921Z,34.43
2023-04-07T22:40:03.626Z,53.07
2023-04-07T22:42:31.735Z,84.97
2023-04-07T22:44:59.713Z,320.10
2023-04-07T22:47:29.132Z,121.70
2023-04-07T22:49:57.617Z,46.23
2023-04-07T22:52:25.712Z,29.77
2023-04-07T22:54:53.628Z,63.53
2023-04-07T22:57:21.654Z,54.97
2023-04-07T22:59:49.575Z,67.67
2023-04-07T23:02:17.643Z,276.97
2023-04-07T23:04:47.088Z,207.13
2023-04-07T23:07:15.069Z,414.97
2023-04-07T23:09:43.045Z,64.80
2023-04-07T23:12:11.048Z,69.03
2023-04-07T23:14:39.005Z,34.10
2023-04-07T23:17:07.159Z,54.83
2023-04-07T23:19:35.102Z,38.23
2023-04-07T23:22:04.474Z,73.40
2023-04-07T23:24:32.443Z,49.93
2023-04-07T23:27:00.850Z,46.47
2023-04-07T23:29:28.797Z,68.30
2023-04-07T23:31:56.763Z,251.47
2023-04-07T23:34:24.729Z,195.47
2023-04-07T23:36:52.930Z,739.70
2023-04-07T23:39:22.244Z,626.33
2023-04-07T23:41:50.189Z,35.57
2023-04-07T23:44:18.845Z,78.77
2023-04-07T23:46:46.784Z,310.30
2023-04-07T23:49:14.743Z,42.73
2023-04-07T23:51:43.769Z,128.20
2023-04-07T23:54:12.350Z,62.77
2023-04-07T23:56:41.656Z,48.70
2023-04-07T23:59:09.623Z,34.50
